sensor_id;sensor_type;location;lat;lon;timestamp;P1;durP1;ratioP1;P2;durP2;ratioP2
19347;SDS011;9810;52.480;9.806;2024-03-07T00:00:42;15.50;;;9.87;;
19347;SDS011;9810;52.480;9.806;2024-03-07T00:03:09;16.17;;;9.97;;
19347;SDS011;9810;52.480;9.806;2024-03-07T00:05:36;16.60;;;10.43;;
19347;SDS011;9810;52.480;9.806;2024-03-07T00:08:03;15.47;;;9.67;;
19347;SDS011;9810;52.480;9.806;2024-03-07T00:10:31;15.83;;;10.53;;
19347;SDS011;9810;52.480;9.806;2024-03-07T00:13:01;13.67;;;9.57;;
19347;SDS011;9810;52.480;9.806;2024-03-07T00:15:28;14.80;;;10.30;;
19347;SDS011;9810;52.480;9.806;2024-03-07T00:17:57;12.70;;;9.30;;
19347;SDS011;9810;52.480;9.806;2024-03-07T00:20:25;16.33;;;9.47;;
19347;SDS011;9810;52.480;9.806;2024-03-07T00:22:52;15.80;;;9.83;;
19347;SDS011;9810;52.480;9.806;2024-03-07T00:25:19;15.57;;;9.90;;
19347;SDS011;9810;52.480;9.806;2024-03-07T00:27:47;13.50;;;9.00;;
19347;SDS011;9810;52.480;9.806;2024-03-07T00:30:17;17.23;;;9.93;;
19347;SDS011;9810;52.480;9.806;2024-03-07T00:32:45;16.93;;;10.00;;
19347;SDS011;9810;52.480;9.806;2024-03-07T00:35:13;14.00;;;8.60;;
19347;SDS011;9810;52.480;9.806;2024-03-07T00:37:41;15.93;;;9.10;;
19347;SDS011;9810;52.480;9.806;2024-03-07T00:40:08;11.73;;;7.67;;
19347;SDS011;9810;52.480;9.806;2024-03-07T00:42:35;14.40;;;8.87;;
19347;SDS011;9810;52.480;9.806;2024-03-07T00:45:02;17.37;;;9.40;;
19347;SDS011;9810;52.480;9.806;2024-03-07T00:47:30;17.50;;;9.13;;
19347;SDS011;9810;52.480;9.806;2024-03-07T00:49:58;19.10;;;11.33;;
19347;SDS011;9810;52.480;9.806;2024-03-07T00:52:27;12.33;;;8.07;;
19347;SDS011;9810;52.480;9.806;2024-03-07T00:54:54;13.33;;;8.93;;
19347;SDS011;9810;52.480;9.806;2024-03-07T00:57:21;15.20;;;8.83;;
19347;SDS011;9810;52.480;9.806;2024-03-07T00:59:48;15.40;;;9.13;;
19347;SDS011;9810;52.480;9.806;2024-03-07T01:02:15;13.57;;;7.97;;
19347;SDS011;9810;52.480;9.806;2024-03-07T01:04:43;13.33;;;8.87;;
19347;SDS011;9810;52.480;9.806;2024-03-07T01:07:10;16.27;;;8.83;;
19347;SDS011;9810;52.480;9.806;2024-03-07T01:09:39;12.73;;;8.33;;
19347;SDS011;9810;52.480;9.806;2024-03-07T01:12:06;13.10;;;8.73;;
19347;SDS011;9810;52.480;9.806;2024-03-07T01:14:35;13.20;;;8.97;;
19347;SDS011;9810;52.480;9.806;2024-03-07T01:17:02;15.53;;;9.40;;
19347;SDS011;9810;52.480;9.806;2024-03-07T01:19:32;14.20;;;8.77;;
19347;SDS011;9810;52.480;9.806;2024-03-07T01:21:59;13.67;;;8.93;;
19347;SDS011;9810;52.480;9.806;2024-03-07T01:24:26;14.60;;;9.00;;
19347;SDS011;9810;52.480;9.806;2024-03-07T01:26:54;13.93;;;9.10;;
19347;SDS011;9810;52.480;9.806;2024-03-07T01:29:21;14.83;;;8.70;;
19347;SDS011;9810;52.480;9.806;2024-03-07T01:31:48;15.27;;;8.83;;
19347;SDS011;9810;52.480;9.806;2024-03-07T01:34:15;14.17;;;8.70;;
19347;SDS011;9810;52.480;9.806;2024-03-07T01:36:42;12.60;;;8.30;;
19347;SDS011;9810;52.480;9.806;2024-03-07T01:39:09;12.03;;;8.60;;
19347;SDS011;9810;52.480;9.806;2024-03-07T01:41:37;13.27;;;8.27;;
19347;SDS011;9810;52.480;9.806;2024-03-07T01:44:07;14.07;;;8.60;;
19347;SDS011;9810;52.480;9.806;2024-03-07T01:46:34;15.93;;;8.33;;
19347;SDS011;9810;52.480;9.806;2024-03-07T01:49:01;12.93;;;8.33;;
19347;SDS011;9810;52.480;9.806;2024-03-07T01:51:28;15.67;;;8.63;;
19347;SDS011;9810;52.480;9.806;2024-03-07T01:53:55;12.33;;;8.27;;
19347;SDS011;9810;52.480;9.806;2024-03-07T01:56:22;14.47;;;9.07;;
19347;SDS011;9810;52.480;9.806;2024-03-07T01:58:49;15.73;;;8.70;;
19347;SDS011;9810;52.480;9.806;2024-03-07T02:01:19;15.33;;;9.10;;
19347;SDS011;9810;52.480;9.806;2024-03-07T02:03:47;13.43;;;8.00;;
19347;SDS011;9810;52.480;9.806;2024-03-07T02:06:14;12.50;;;8.30;;
19347;SDS011;9810;52.480;9.806;2024-03-07T02:08:41;16.00;;;9.47;;
19347;SDS011;9810;52.480;9.806;2024-03-07T02:11:08;13.13;;;8.60;;
19347;SDS011;9810;52.480;9.806;2024-03-07T02:13:35;14.30;;;8.80;;
19347;SDS011;9810;52.480;9.806;2024-03-07T02:16:02;14.13;;;9.40;;
19347;SDS011;9810;52.480;9.806;2024-03-07T02:18:31;16.87;;;9.93;;
19347;SDS011;9810;52.480;9.806;2024-03-07T02:21:00;16.60;;;10.03;;
19347;SDS011;9810;52.480;9.806;2024-03-07T02:23:32;17.13;;;9.40;;
19347;SDS011;9810;52.480;9.806;2024-03-07T02:25:59;15.87;;;9.90;;
19347;SDS011;9810;52.480;9.806;2024-03-07T02:28:26;14.93;;;9.63;;
19347;SDS011;9810;52.480;9.806;2024-03-07T02:30:53;15.37;;;9.27;;
19347;SDS011;9810;52.480;9.806;2024-03-07T02:33:20;14.90;;;9.40;;
19347;SDS011;9810;52.480;9.806;2024-03-07T02:35:48;17.43;;;10.23;;
19347;SDS011;9810;52.480;9.806;2024-03-07T02:38:17;21.97;;;11.30;;
19347;SDS011;9810;52.480;9.806;2024-03-07T02:40:44;16.90;;;10.40;;
19347;SDS011;9810;52.480;9.806;2024-03-07T02:43:12;16.60;;;9.80;;
19347;SDS011;9810;52.480;9.806;2024-03-07T02:45:39;15.73;;;9.87;;
19347;SDS011;9810;52.480;9.806;2024-03-07T02:48:06;17.70;;;10.60;;
19347;SDS011;9810;52.480;9.806;2024-03-07T02:50:34;15.03;;;9.13;;
19347;SDS011;9810;52.480;9.806;2024-03-07T02:53:02;17.77;;;10.03;;
19347;SDS011;9810;52.480;9.806;2024-03-07T02:55:31;16.00;;;10.13;;
19347;SDS011;9810;52.480;9.806;2024-03-07T02:57:59;16.00;;;10.33;;
19347;SDS011;9810;52.480;9.806;2024-03-07T03:00:26;16.90;;;10.20;;
19347;SDS011;9810;52.480;9.806;2024-03-07T03:02:55;16.20;;;10.07;;
19347;SDS011;9810;52.480;9.806;2024-03-07T03:05:22;16.13;;;9.97;;
19347;SDS011;9810;52.480;9.806;2024-03-07T03:07:49;16.43;;;9.57;;
19347;SDS011;9810;52.480;9.806;2024-03-07T03:10:20;19.53;;;11.07;;
19347;SDS011;9810;52.480;9.806;2024-03-07T03:12:51;17.80;;;10.40;;
19347;SDS011;9810;52.480;9.806;2024-03-07T03:15:19;17.10;;;9.33;;
19347;SDS011;9810;52.480;9.806;2024-03-07T03:17:46;17.67;;;11.37;;
19347;SDS011;9810;52.480;9.806;2024-03-07T03:20:14;18.60;;;10.97;;
19347;SDS011;9810;52.480;9.806;2024-03-07T03:22:49;17.97;;;10.93;;
19347;SDS011;9810;52.480;9.806;2024-03-07T03:25:17;16.03;;;10.80;;
19347;SDS011;9810;52.480;9.806;2024-03-07T03:27:45;17.80;;;10.70;;
19347;SDS011;9810;52.480;9.806;2024-03-07T03:30:14;20.37;;;11.93;;
19347;SDS011;9810;52.480;9.806;2024-03-07T03:32:43;19.43;;;11.17;;
19347;SDS011;9810;52.480;9.806;2024-03-07T03:35:11;16.50;;;10.63;;
19347;SDS011;9810;52.480;9.806;2024-03-07T03:37:39;19.07;;;10.97;;
19347;SDS011;9810;52.480;9.806;2024-03-07T03:40:08;17.13;;;11.30;;
19347;SDS011;9810;52.480;9.806;2024-03-07T03:42:36;20.93;;;12.77;;
19347;SDS011;9810;52.480;9.806;2024-03-07T03:45:03;22.00;;;13.40;;
19347;SDS011;9810;52.480;9.806;2024-03-07T03:47:34;19.07;;;11.77;;
19347;SDS011;9810;52.480;9.806;2024-03-07T03:50:02;17.97;;;11.40;;
19347;SDS011;9810;52.480;9.806;2024-03-07T03:52:30;22.13;;;12.80;;
19347;SDS011;9810;52.480;9.806;2024-03-07T03:54:57;20.20;;;12.73;;
19347;SDS011;9810;52.480;9.806;2024-03-07T03:57:24;21.90;;;12.57;;
19347;SDS011;9810;52.480;9.806;2024-03-07T03:59:51;24.50;;;13.00;;
19347;SDS011;9810;52.480;9.806;2024-03-07T04:02:19;21.47;;;13.77;;
19347;SDS011;9810;52.480;9.806;2024-03-07T04:04:48;22.20;;;12.43;;
19347;SDS011;9810;52.480;9.806;2024-03-07T04:07:16;25.13;;;14.60;;
19347;SDS011;9810;52.480;9.806;2024-03-07T04:09:43;25.50;;;14.97;;
19347;SDS011;9810;52.480;9.806;2024-03-07T04:12:12;22.67;;;13.87;;
19347;SDS011;9810;52.480;9.806;2024-03-07T04:14:40;26.13;;;15.20;;
19347;SDS011;9810;52.480;9.806;2024-03-07T04:17:08;22.73;;;13.73;;
19347;SDS011;9810;52.480;9.806;2024-03-07T04:19:37;25.57;;;14.23;;
19347;SDS011;9810;52.480;9.806;2024-03-07T04:22:06;20.27;;;13.63;;
19347;SDS011;9810;52.480;9.806;2024-03-07T04:24:34;24.57;;;13.37;;
19347;SDS011;9810;52.480;9.806;2024-03-07T04:27:01;25.03;;;14.87;;
19347;SDS011;9810;52.480;9.806;2024-03-07T04:29:30;22.63;;;13.17;;
19347;SDS011;9810;52.480;9.806;2024-03-07T04:31:57;23.30;;;13.30;;
19347;SDS011;9810;52.480;9.806;2024-03-07T04:34:24;23.00;;;13.20;;
19347;SDS011;9810;52.480;9.806;2024-03-07T04:36:51;26.15;;;16.63;;
19347;SDS011;9810;52.480;9.806;2024-03-07T04:39:19;20.97;;;13.23;;
19347;SDS011;9810;52.480;9.806;2024-03-07T04:41:53;26.00;;;14.07;;
19347;SDS011;9810;52.480;9.806;2024-03-07T04:44:20;31.03;;;15.90;;
19347;SDS011;9810;52.480;9.806;2024-03-07T04:46:48;26.60;;;14.20;;
19347;SDS011;9810;52.480;9.806;2024-03-07T04:49:16;23.50;;;14.70;;
19347;SDS011;9810;52.480;9.806;2024-03-07T04:51:43;27.80;;;15.70;;
19347;SDS011;9810;52.480;9.806;2024-03-07T04:54:10;24.07;;;14.20;;
19347;SDS011;9810;52.480;9.806;2024-03-07T04:56:38;27.73;;;15.13;;
19347;SDS011;9810;52.480;9.806;2024-03-07T04:59:04;26.30;;;15.87;;
19347;SDS011;9810;52.480;9.806;2024-03-07T05:01:31;28.97;;;14.63;;
19347;SDS011;9810;52.480;9.806;2024-03-07T05:03:58;25.03;;;15.33;;
19347;SDS011;9810;52.480;9.806;2024-03-07T05:06:25;25.30;;;14.97;;
19347;SDS011;9810;52.480;9.806;2024-03-07T05:08:54;27.50;;;15.43;;
19347;SDS011;9810;52.480;9.806;2024-03-07T05:11:21;26.73;;;14.90;;
19347;SDS011;9810;52.480;9.806;2024-03-07T05:13:49;34.30;;;17.20;;
19347;SDS011;9810;52.480;9.806;2024-03-07T05:16:17;34.83;;;18.17;;
19347;SDS011;9810;52.480;9.806;2024-03-07T05:18:45;31.47;;;17.60;;
19347;SDS011;9810;52.480;9.806;2024-03-07T05:21:12;30.17;;;17.93;;
19347;SDS011;9810;52.480;9.806;2024-03-07T05:24:05;30.97;;;16.90;;
19347;SDS011;9810;52.480;9.806;2024-03-07T05:26:33;30.83;;;16.93;;
19347;SDS011;9810;52.480;9.806;2024-03-07T05:29:04;33.10;;;17.47;;
19347;SDS011;9810;52.480;9.806;2024-03-07T05:31:33;32.73;;;18.10;;
19347;SDS011;9810;52.480;9.806;2024-03-07T05:34:00;41.27;;;18.37;;
19347;SDS011;9810;52.480;9.806;2024-03-07T05:36:30;39.73;;;17.70;;
19347;SDS011;9810;52.480;9.806;2024-03-07T05:38:57;37.33;;;18.47;;
19347;SDS011;9810;52.480;9.806;2024-03-07T05:41:24;38.23;;;19.23;;
19347;SDS011;9810;52.480;9.806;2024-03-07T05:43:54;39.67;;;20.13;;
19347;SDS011;9810;52.480;9.806;2024-03-07T05:46:23;39.57;;;19.07;;
19347;SDS011;9810;52.480;9.806;2024-03-07T05:48:50;41.23;;;19.83;;
19347;SDS011;9810;52.480;9.806;2024-03-07T05:51:21;41.97;;;19.87;;
19347;SDS011;9810;52.480;9.806;2024-03-07T05:53:49;46.57;;;20.93;;
19347;SDS011;9810;52.480;9.806;2024-03-07T05:56:16;50.40;;;22.27;;
19347;SDS011;9810;52.480;9.806;2024-03-07T05:58:43;43.90;;;21.37;;
19347;SDS011;9810;52.480;9.806;2024-03-07T06:01:10;47.13;;;21.80;;
19347;SDS011;9810;52.480;9.806;2024-03-07T06:03:39;48.30;;;21.67;;
19347;SDS011;9810;52.480;9.806;2024-03-07T06:06:06;53.83;;;24.10;;
19347;SDS011;9810;52.480;9.806;2024-03-07T06:08:36;51.07;;;22.83;;
19347;SDS011;9810;52.480;9.806;2024-03-07T06:11:03;54.27;;;22.70;;
19347;SDS011;9810;52.480;9.806;2024-03-07T06:13:31;60.23;;;24.63;;
19347;SDS011;9810;52.480;9.806;2024-03-07T06:15:58;53.17;;;22.37;;
19347;SDS011;9810;52.480;9.806;2024-03-07T06:18:29;63.50;;;25.17;;
19347;SDS011;9810;52.480;9.806;2024-03-07T06:20:58;64.20;;;25.63;;
19347;SDS011;9810;52.480;9.806;2024-03-07T06:23:25;59.87;;;24.23;;
19347;SDS011;9810;52.480;9.806;2024-03-07T06:25:53;51.77;;;24.20;;
19347;SDS011;9810;52.480;9.806;2024-03-07T06:28:23;57.70;;;23.57;;
19347;SDS011;9810;52.480;9.806;2024-03-07T06:30:50;59.90;;;26.00;;
19347;SDS011;9810;52.480;9.806;2024-03-07T06:33:17;58.40;;;24.70;;
19347;SDS011;9810;52.480;9.806;2024-03-07T06:35:45;58.33;;;25.53;;
19347;SDS011;9810;52.480;9.806;2024-03-07T06:38:14;68.20;;;26.90;;
19347;SDS011;9810;52.480;9.806;2024-03-07T06:40:41;60.63;;;24.87;;
19347;SDS011;9810;52.480;9.806;2024-03-07T06:43:08;60.50;;;24.73;;
19347;SDS011;9810;52.480;9.806;2024-03-07T06:45:36;65.27;;;25.90;;
19347;SDS011;9810;52.480;9.806;2024-03-07T06:48:04;70.50;;;28.37;;
19347;SDS011;9810;52.480;9.806;2024-03-07T06:50:32;64.60;;;25.13;;
19347;SDS011;9810;52.480;9.806;2024-03-07T06:53:00;64.00;;;25.70;;
19347;SDS011;9810;52.480;9.806;2024-03-07T06:55:28;65.37;;;25.50;;
19347;SDS011;9810;52.480;9.806;2024-03-07T06:57:56;55.40;;;23.47;;
19347;SDS011;9810;52.480;9.806;2024-03-07T07:00:22;56.07;;;25.27;;
19347;SDS011;9810;52.480;9.806;2024-03-07T07:02:51;56.83;;;23.90;;
19347;SDS011;9810;52.480;9.806;2024-03-07T07:05:19;56.30;;;23.17;;
19347;SDS011;9810;52.480;9.806;2024-03-07T07:07:48;52.83;;;21.57;;
19347;SDS011;9810;52.480;9.806;2024-03-07T07:10:16;48.07;;;22.80;;
19347;SDS011;9810;52.480;9.806;2024-03-07T07:12:45;48.00;;;23.27;;
19347;SDS011;9810;52.480;9.806;2024-03-07T07:15:13;51.20;;;22.13;;
19347;SDS011;9810;52.480;9.806;2024-03-07T07:17:41;48.40;;;23.00;;
19347;SDS011;9810;52.480;9.806;2024-03-07T07:20:10;49.37;;;22.77;;
19347;SDS011;9810;52.480;9.806;2024-03-07T07:22:40;56.27;;;24.03;;
19347;SDS011;9810;52.480;9.806;2024-03-07T07:25:07;48.37;;;21.33;;
19347;SDS011;9810;52.480;9.806;2024-03-07T07:27:39;44.00;;;21.43;;
19347;SDS011;9810;52.480;9.806;2024-03-07T07:30:11;41.53;;;19.13;;
19347;SDS011;9810;52.480;9.806;2024-03-07T07:32:39;50.30;;;22.30;;
19347;SDS011;9810;52.480;9.806;2024-03-07T07:35:06;46.10;;;21.07;;
19347;SDS011;9810;52.480;9.806;2024-03-07T07:37:36;45.67;;;21.70;;
19347;SDS011;9810;52.480;9.806;2024-03-07T07:40:04;50.77;;;22.73;;
19347;SDS011;9810;52.480;9.806;2024-03-07T07:42:34;42.90;;;19.30;;
19347;SDS011;9810;52.480;9.806;2024-03-07T07:45:04;42.13;;;19.07;;
19347;SDS011;9810;52.480;9.806;2024-03-07T07:47:38;48.90;;;20.23;;
19347;SDS011;9810;52.480;9.806;2024-03-07T07:50:06;39.03;;;20.23;;
19347;SDS011;9810;52.480;9.806;2024-03-07T07:52:39;36.60;;;18.47;;
19347;SDS011;9810;52.480;9.806;2024-03-07T07:55:07;41.63;;;18.60;;
19347;SDS011;9810;52.480;9.806;2024-03-07T07:57:40;44.00;;;18.23;;
19347;SDS011;9810;52.480;9.806;2024-03-07T08:00:08;37.07;;;16.70;;
19347;SDS011;9810;52.480;9.806;2024-03-07T08:02:38;39.93;;;17.63;;
19347;SDS011;9810;52.480;9.806;2024-03-07T08:05:05;40.57;;;18.53;;
19347;SDS011;9810;52.480;9.806;2024-03-07T08:07:33;35.33;;;16.50;;
19347;SDS011;9810;52.480;9.806;2024-03-07T08:10:00;40.97;;;19.50;;
19347;SDS011;9810;52.480;9.806;2024-03-07T08:12:27;44.70;;;18.77;;
19347;SDS011;9810;52.480;9.806;2024-03-07T08:14:54;41.17;;;18.77;;
19347;SDS011;9810;52.480;9.806;2024-03-07T08:17:21;39.70;;;18.30;;
19347;SDS011;9810;52.480;9.806;2024-03-07T08:19:50;35.03;;;17.17;;
19347;SDS011;9810;52.480;9.806;2024-03-07T08:22:17;33.60;;;15.30;;
19347;SDS011;9810;52.480;9.806;2024-03-07T08:24:44;33.13;;;17.83;;
19347;SDS011;9810;52.480;9.806;2024-03-07T08:27:12;41.60;;;18.37;;
19347;SDS011;9810;52.480;9.806;2024-03-07T08:29:38;38.63;;;17.07;;
19347;SDS011;9810;52.480;9.806;2024-03-07T08:32:06;32.13;;;15.20;;
19347;SDS011;9810;52.480;9.806;2024-03-07T08:34:33;37.07;;;16.20;;
19347;SDS011;9810;52.480;9.806;2024-03-07T08:37:02;32.80;;;15.73;;
19347;SDS011;9810;52.480;9.806;2024-03-07T08:39:30;37.57;;;17.80;;
19347;SDS011;9810;52.480;9.806;2024-03-07T08:41:57;29.70;;;15.03;;
19347;SDS011;9810;52.480;9.806;2024-03-07T08:44:24;31.93;;;15.30;;
19347;SDS011;9810;52.480;9.806;2024-03-07T08:46:51;30.60;;;15.17;;
19347;SDS011;9810;52.480;9.806;2024-03-07T08:49:18;31.17;;;14.97;;
19347;SDS011;9810;52.480;9.806;2024-03-07T08:51:45;34.70;;;16.60;;
19347;SDS011;9810;52.480;9.806;2024-03-07T08:54:14;32.30;;;15.67;;
19347;SDS011;9810;52.480;9.806;2024-03-07T08:56:41;32.03;;;14.93;;
19347;SDS011;9810;52.480;9.806;2024-03-07T08:59:08;28.80;;;14.90;;
19347;SDS011;9810;52.480;9.806;2024-03-07T09:01:40;29.77;;;16.17;;
19347;SDS011;9810;52.480;9.806;2024-03-07T09:04:08;36.03;;;16.83;;
19347;SDS011;9810;52.480;9.806;2024-03-07T09:06:36;30.80;;;15.03;;
19347;SDS011;9810;52.480;9.806;2024-03-07T09:09:03;26.70;;;13.27;;
19347;SDS011;9810;52.480;9.806;2024-03-07T09:11:35;32.47;;;14.77;;
19347;SDS011;9810;52.480;9.806;2024-03-07T09:14:03;29.83;;;15.13;;
19347;SDS011;9810;52.480;9.806;2024-03-07T09:16:34;27.77;;;13.87;;
19347;SDS011;9810;52.480;9.806;2024-03-07T09:19:01;34.73;;;15.30;;
19347;SDS011;9810;52.480;9.806;2024-03-07T09:21:28;31.13;;;16.07;;
19347;SDS011;9810;52.480;9.806;2024-03-07T09:23:55;27.13;;;14.13;;
19347;SDS011;9810;52.480;9.806;2024-03-07T09:26:22;26.43;;;11.63;;
19347;SDS011;9810;52.480;9.806;2024-03-07T09:28:52;31.90;;;14.07;;
19347;SDS011;9810;52.480;9.806;2024-03-07T09:31:20;31.50;;;15.13;;
19347;SDS011;9810;52.480;9.806;2024-03-07T09:33:47;33.43;;;14.40;;
19347;SDS011;9810;52.480;9.806;2024-03-07T09:36:15;34.93;;;15.20;;
19347;SDS011;9810;52.480;9.806;2024-03-07T09:38:44;33.33;;;14.47;;
19347;SDS011;9810;52.480;9.806;2024-03-07T09:41:11;30.97;;;14.77;;
19347;SDS011;9810;52.480;9.806;2024-03-07T09:43:38;28.57;;;13.03;;
19347;SDS011;9810;52.480;9.806;2024-03-07T09:46:10;33.27;;;15.10;;
19347;SDS011;9810;52.480;9.806;2024-03-07T09:48:38;30.33;;;11.97;;
19347;SDS011;9810;52.480;9.806;2024-03-07T09:51:05;31.07;;;14.63;;
19347;SDS011;9810;52.480;9.806;2024-03-07T09:53:34;30.47;;;13.47;;
19347;SDS011;9810;52.480;9.806;2024-03-07T09:56:04;41.17;;;14.63;;
19347;SDS011;9810;52.480;9.806;2024-03-07T09:58:32;35.77;;;15.60;;
19347;SDS011;9810;52.480;9.806;2024-03-07T10:01:00;38.70;;;17.60;;
19347;SDS011;9810;52.480;9.806;2024-03-07T10:03:30;36.00;;;16.47;;
19347;SDS011;9810;52.480;9.806;2024-03-07T10:06:00;37.23;;;15.57;;
19347;SDS011;9810;52.480;9.806;2024-03-07T10:08:28;38.33;;;16.23;;
19347;SDS011;9810;52.480;9.806;2024-03-07T10:10:56;42.10;;;16.77;;
19347;SDS011;9810;52.480;9.806;2024-03-07T10:13:23;37.30;;;16.13;;
19347;SDS011;9810;52.480;9.806;2024-03-07T10:15:51;35.70;;;15.33;;
19347;SDS011;9810;52.480;9.806;2024-03-07T10:18:18;38.17;;;15.57;;
19347;SDS011;9810;52.480;9.806;2024-03-07T10:20:49;40.17;;;16.10;;
19347;SDS011;9810;52.480;9.806;2024-03-07T10:23:18;36.60;;;13.43;;
19347;SDS011;9810;52.480;9.806;2024-03-07T10:25:46;37.70;;;17.00;;
19347;SDS011;9810;52.480;9.806;2024-03-07T10:28:13;42.83;;;19.00;;
19347;SDS011;9810;52.480;9.806;2024-03-07T10:30:42;35.20;;;15.43;;
19347;SDS011;9810;52.480;9.806;2024-03-07T10:33:11;40.93;;;16.90;;
19347;SDS011;9810;52.480;9.806;2024-03-07T10:35:40;44.50;;;19.37;;
19347;SDS011;9810;52.480;9.806;2024-03-07T10:38:09;44.57;;;17.00;;
19347;SDS011;9810;52.480;9.806;2024-03-07T10:40:37;42.43;;;17.63;;
19347;SDS011;9810;52.480;9.806;2024-03-07T10:43:07;47.73;;;18.67;;
19347;SDS011;9810;52.480;9.806;2024-03-07T10:45:37;41.67;;;17.93;;
19347;SDS011;9810;52.480;9.806;2024-03-07T10:48:11;50.83;;;18.67;;
19347;SDS011;9810;52.480;9.806;2024-03-07T10:50:42;40.90;;;16.73;;
19347;SDS011;9810;52.480;9.806;2024-03-07T10:53:19;51.97;;;20.60;;
19347;SDS011;9810;52.480;9.806;2024-03-07T10:55:53;44.83;;;19.80;;
19347;SDS011;9810;52.480;9.806;2024-03-07T10:58:42;47.30;;;18.80;;
19347;SDS011;9810;52.480;9.806;2024-03-07T11:01:13;42.33;;;18.50;;
19347;SDS011;9810;52.480;9.806;2024-03-07T11:03:41;43.70;;;19.33;;
19347;SDS011;9810;52.480;9.806;2024-03-07T11:06:08;43.07;;;15.93;;
19347;SDS011;9810;52.480;9.806;2024-03-07T11:08:38;35.47;;;17.37;;
19347;SDS011;9810;52.480;9.806;2024-03-07T11:11:06;42.03;;;16.50;;
19347;SDS011;9810;52.480;9.806;2024-03-07T11:13:33;47.47;;;18.23;;
19347;SDS011;9810;52.480;9.806;2024-03-07T11:16:02;40.67;;;19.13;;
19347;SDS011;9810;52.480;9.806;2024-03-07T11:18:31;47.90;;;17.43;;
19347;SDS011;9810;52.480;9.806;2024-03-07T11:20:58;39.90;;;17.63;;
19347;SDS011;9810;52.480;9.806;2024-03-07T11:23:25;45.60;;;18.37;;
19347;SDS011;9810;52.480;9.806;2024-03-07T11:26:03;50.50;;;18.60;;
19347;SDS011;9810;52.480;9.806;2024-03-07T11:28:32;44.03;;;17.83;;
19347;SDS011;9810;52.480;9.806;2024-03-07T11:31:09;44.83;;;18.33;;
19347;SDS011;9810;52.480;9.806;2024-03-07T11:33:38;44.23;;;18.40;;
19347;SDS011;9810;52.480;9.806;2024-03-07T11:36:06;40.83;;;16.53;;
19347;SDS011;9810;52.480;9.806;2024-03-07T11:38:34;31.23;;;11.27;;
19347;SDS011;9810;52.480;9.806;2024-03-07T11:41:04;42.30;;;17.80;;
19347;SDS011;9810;52.480;9.806;2024-03-07T11:43:37;38.87;;;15.07;;
19347;SDS011;9810;52.480;9.806;2024-03-07T11:46:05;44.47;;;19.37;;
19347;SDS011;9810;52.480;9.806;2024-03-07T11:48:38;45.00;;;18.80;;
19347;SDS011;9810;52.480;9.806;2024-03-07T11:51:07;45.53;;;17.90;;
19347;SDS011;9810;52.480;9.806;2024-03-07T11:53:38;38.70;;;18.33;;
19347;SDS011;9810;52.480;9.806;2024-03-07T11:56:07;43.70;;;16.97;;
19347;SDS011;9810;52.480;9.806;2024-03-07T11:58:41;36.30;;;16.87;;
19347;SDS011;9810;52.480;9.806;2024-03-07T12:01:10;34.90;;;15.67;;
19347;SDS011;9810;52.480;9.806;2024-03-07T12:03:38;45.30;;;17.67;;
19347;SDS011;9810;52.480;9.806;2024-03-07T12:06:06;42.97;;;19.60;;
19347;SDS011;9810;52.480;9.806;2024-03-07T12:08:37;39.23;;;17.47;;
19347;SDS011;9810;52.480;9.806;2024-03-07T12:11:04;30.87;;;13.07;;
19347;SDS011;9810;52.480;9.806;2024-03-07T12:13:33;39.90;;;15.80;;
19347;SDS011;9810;52.480;9.806;2024-03-07T12:16:00;33.20;;;15.33;;
19347;SDS011;9810;52.480;9.806;2024-03-07T12:18:27;31.57;;;15.93;;
19347;SDS011;9810;52.480;9.806;2024-03-07T12:20:55;29.83;;;13.23;;
19347;SDS011;9810;52.480;9.806;2024-03-07T12:23:24;34.47;;;15.50;;
19347;SDS011;9810;52.480;9.806;2024-03-07T12:25:58;32.67;;;16.77;;
19347;SDS011;9810;52.480;9.806;2024-03-07T12:28:26;29.40;;;12.87;;
19347;SDS011;9810;52.480;9.806;2024-03-07T12:30:59;34.20;;;15.67;;
19347;SDS011;9810;52.480;9.806;2024-03-07T12:33:28;40.80;;;19.20;;
19347;SDS011;9810;52.480;9.806;2024-03-07T12:35:57;38.90;;;16.43;;
19347;SDS011;9810;52.480;9.806;2024-03-07T12:38:31;34.33;;;16.10;;
19347;SDS011;9810;52.480;9.806;2024-03-07T12:41:04;39.03;;;16.47;;
19347;SDS011;9810;52.480;9.806;2024-03-07T12:43:32;31.17;;;15.20;;
19347;SDS011;9810;52.480;9.806;2024-03-07T12:46:01;33.97;;;16.67;;
19347;SDS011;9810;52.480;9.806;2024-03-07T12:48:29;38.97;;;15.67;;
19347;SDS011;9810;52.480;9.806;2024-03-07T12:50:57;39.97;;;17.17;;
19347;SDS011;9810;52.480;9.806;2024-03-07T12:53:24;39.40;;;16.93;;
19347;SDS011;9810;52.480;9.806;2024-03-07T12:55:51;32.40;;;15.30;;
19347;SDS011;9810;52.480;9.806;2024-03-07T12:58:18;28.67;;;14.33;;
19347;SDS011;9810;52.480;9.806;2024-03-07T13:00:48;31.60;;;14.27;;
19347;SDS011;9810;52.480;9.806;2024-03-07T13:03:17;30.87;;;14.60;;
19347;SDS011;9810;52.480;9.806;2024-03-07T13:05:44;28.93;;;13.63;;
19347;SDS011;9810;52.480;9.806;2024-03-07T13:08:11;28.77;;;14.53;;
19347;SDS011;9810;52.480;9.806;2024-03-07T13:10:40;27.43;;;13.50;;
19347;SDS011;9810;52.480;9.806;2024-03-07T13:13:08;26.37;;;13.13;;
19347;SDS011;9810;52.480;9.806;2024-03-07T13:15:35;25.27;;;11.57;;
19347;SDS011;9810;52.480;9.806;2024-03-07T13:18:04;29.53;;;12.53;;
19347;SDS011;9810;52.480;9.806;2024-03-07T13:20:32;21.23;;;11.30;;
19347;SDS011;9810;52.480;9.806;2024-03-07T13:22:59;26.37;;;13.63;;
19347;SDS011;9810;52.480;9.806;2024-03-07T13:25:27;26.93;;;13.40;;
19347;SDS011;9810;52.480;9.806;2024-03-07T13:28:00;29.40;;;13.40;;
19347;SDS011;9810;52.480;9.806;2024-03-07T13:30:29;28.73;;;14.13;;
19347;SDS011;9810;52.480;9.806;2024-03-07T13:32:56;25.70;;;13.17;;
19347;SDS011;9810;52.480;9.806;2024-03-07T13:35:24;20.17;;;12.50;;
19347;SDS011;9810;52.480;9.806;2024-03-07T13:37:54;20.60;;;12.00;;
19347;SDS011;9810;52.480;9.806;2024-03-07T13:40:21;31.43;;;12.63;;
19347;SDS011;9810;52.480;9.806;2024-03-07T13:42:49;25.40;;;12.73;;
19347;SDS011;9810;52.480;9.806;2024-03-07T13:45:20;22.77;;;12.67;;
19347;SDS011;9810;52.480;9.806;2024-03-07T13:47:48;23.10;;;12.37;;
19347;SDS011;9810;52.480;9.806;2024-03-07T13:50:17;26.83;;;14.10;;
19347;SDS011;9810;52.480;9.806;2024-03-07T13:52:47;26.57;;;12.03;;
19347;SDS011;9810;52.480;9.806;2024-03-07T13:55:30;23.23;;;12.03;;
19347;SDS011;9810;52.480;9.806;2024-03-07T13:58:01;22.83;;;11.80;;
19347;SDS011;9810;52.480;9.806;2024-03-07T14:00:41;20.37;;;11.77;;
19347;SDS011;9810;52.480;9.806;2024-03-07T14:06:30;20.00;;;10.47;;
19347;SDS011;9810;52.480;9.806;2024-03-07T14:09:22;23.87;;;11.73;;
19347;SDS011;9810;52.480;9.806;2024-03-07T14:12:15;27.57;;;11.87;;
19347;SDS011;9810;52.480;9.806;2024-03-07T14:24:36;22.10;;;11.43;;
19347;SDS011;9810;52.480;9.806;2024-03-07T14:27:29;19.73;;;10.00;;
19347;SDS011;9810;52.480;9.806;2024-03-07T14:30:05;23.40;;;11.67;;
19347;SDS011;9810;52.480;9.806;2024-03-07T14:32:53;22.17;;;12.00;;
19347;SDS011;9810;52.480;9.806;2024-03-07T14:35:23;20.20;;;11.53;;
19347;SDS011;9810;52.480;9.806;2024-03-07T14:37:55;22.30;;;12.47;;
19347;SDS011;9810;52.480;9.806;2024-03-07T14:40:31;22.53;;;12.57;;
19347;SDS011;9810;52.480;9.806;2024-03-07T14:43:01;23.77;;;13.27;;
19347;SDS011;9810;52.480;9.806;2024-03-07T14:45:32;24.67;;;11.33;;
19347;SDS011;9810;52.480;9.806;2024-03-07T14:48:03;23.93;;;11.50;;
19347;SDS011;9810;52.480;9.806;2024-03-07T14:50:35;24.57;;;11.17;;
19347;SDS011;9810;52.480;9.806;2024-03-07T14:53:04;18.90;;;11.00;;
19347;SDS011;9810;52.480;9.806;2024-03-07T14:55:31;18.77;;;10.60;;
19347;SDS011;9810;52.480;9.806;2024-03-07T14:58:00;21.33;;;11.73;;